Time;durP1;ratioP1;P1;durP2;ratioP2;P2;SDS_P1;SDS_P2;PMS_P1;PMS_P2;Temp;Humidity;BMP_temperature;BMP_pressure;BME280_temperature;BME280_humidity;BME280_pressure;Samples;Min_cycle;Max_cycle;Signal;HPM_P1;HPM_P2
2023/08/23 00:00:04;;;;;;;4.32;2.30;;;19.10;67.50;;;;;;5007777;28;20486;-73
2023/08/23 00:02:39;;;;;;;5.07;2.45;;;19.00;67.50;;;;;;5008288;28;20133;-73
2023/08/23 00:05:06;;;;;;;4.33;2.20;;;19.00;67.50;;;;;;5009952;28;20054;-73
2023/08/23 00:07:33;;;;;;;4.65;2.22;;;18.90;67.50;;;;;;5010075;28;20137;-73
2023/08/23 00:10:00;;;;;;;4.18;2.25;;;18.90;67.50;;;;;;5007735;28;20048;-73
2023/08/23 00:12:27;;;;;;;5.93;2.67;;;18.90;67.50;;;;;;5007903;28;20046;-73
2023/08/23 00:14:55;;;;;;;5.60;2.28;;;18.90;67.60;;;;;;5008231;28;20054;-73
2023/08/23 00:17:22;;;;;;;5.87;3.20;;;18.80;67.70;;;;;;5008476;28;20055;-73
2023/08/23 00:19:49;;;;;;;4.40;2.42;;;18.80;67.90;;;;;;5008416;28;20050;-73
2023/08/23 00:22:16;;;;;;;4.13;2.25;;;18.70;68.10;;;;;;5007894;28;20181;-73
2023/08/23 00:24:43;;;;;;;4.47;2.05;;;18.70;68.20;;;;;;5008194;28;20101;-73
2023/08/23 00:27:10;;;;;;;4.05;2.20;;;18.70;68.20;;;;;;5007944;28;20050;-73
2023/08/23 00:29:37;;;;;;;4.77;2.50;;;18.60;68.00;;;;;;5008131;28;20121;-73
2023/08/23 00:32:06;;;;;;;4.70;2.50;;;18.60;68.10;;;;;;5008131;28;20129;-74
2023/08/23 00:34:33;;;;;;;4.13;2.80;;;18.60;68.20;;;;;;4991073;28;20054;-73
2023/08/23 00:37:00;;;;;;;8.02;4.20;;;18.50;68.20;;;;;;5007821;28;20042;-73
2023/08/23 00:39:27;;;;;;;5.97;2.88;;;18.50;68.60;;;;;;5007923;28;20674;-73
2023/08/23 00:41:54;;;;;;;8.47;3.90;;;18.50;68.70;;;;;;5007412;28;20133;-73
2023/08/23 00:44:21;;;;;;;6.45;3.20;;;18.40;68.80;;;;;;5009167;28;20046;-73
2023/08/23 00:46:48;;;;;;;4.95;3.10;;;18.40;68.80;;;;;;4991544;28;20142;-73
2023/08/23 00:49:16;;;;;;;6.00;3.30;;;18.40;68.80;;;;;;4991401;28;20487;-73
2023/08/23 00:51:43;;;;;;;7.28;3.75;;;18.40;68.90;;;;;;5007445;28;20520;-73
2023/08/23 00:54:11;;;;;;;4.60;2.90;;;18.30;68.80;;;;;;4991161;28;20051;-72
2023/08/23 00:56:39;;;;;;;4.90;3.10;;;18.30;68.90;;;;;;4989911;28;20065;-73
2023/08/23 00:59:08;;;;;;;4.95;2.95;;;18.30;68.90;;;;;;4987583;28;20078;-73
2023/08/23 01:01:35;;;;;;;5.47;2.80;;;18.30;68.80;;;;;;5005008;28;20153;-73
2023/08/23 01:04:02;;;;;;;4.68;2.63;;;18.20;68.70;;;;;;5003930;28;20054;-73
2023/08/23 01:06:36;;;;;;;5.30;2.70;;;18.20;68.70;;;;;;5007444;28;20138;-72
2023/08/23 01:09:12;;;;;;;4.40;2.72;;;18.20;68.70;;;;;;4990993;28;20566;-73
2023/08/23 01:11:46;;;;;;;6.10;3.15;;;18.10;68.60;;;;;;4990844;28;20173;-73
2023/08/23 01:14:20;;;;;;;5.97;3.60;;;18.10;68.70;;;;;;4991109;28;20078;-73
2023/08/23 01:16:49;;;;;;;6.63;3.50;;;18.10;68.80;;;;;;4990889;28;20046;-73
2023/08/23 01:19:34;;;;;;;5.57;3.03;;;18.10;68.70;;;;;;5007276;28;20536;-73
2023/08/23 01:22:07;;;;;;;5.90;3.13;;;18.00;68.70;;;;;;5008595;28;20161;-73
2023/08/23 01:24:36;;;;;;;5.82;3.13;;;18.00;68.80;;;;;;5007461;28;20997;-73
2023/08/23 01:27:03;;;;;;;4.60;2.92;;;18.00;68.80;;;;;;5008763;28;20535;-73
2023/08/23 01:29:30;;;;;;;5.13;3.22;;;18.00;68.70;;;;;;5007104;28;20058;-72
2023/08/23 01:32:04;;;;;;;5.23;3.27;;;18.00;69.00;;;;;;4990313;28;20105;-73
2023/08/23 01:34:36;;;;;;;5.43;3.58;;;18.00;69.40;;;;;;4990947;28;20572;-73
2023/08/23 01:37:06;;;;;;;4.88;2.80;;;18.00;69.50;;;;;;5008160;28;20105;-72
2023/08/23 01:39:36;;;;;;;4.38;2.50;;;17.90;69.40;;;;;;4990488;28;20347;-73
2023/08/23 01:42:03;;;;;;;4.60;2.60;;;17.90;69.00;;;;;;4989948;28;20141;-72
2023/08/23 01:44:30;;;;;;;4.23;3.03;;;17.80;68.70;;;;;;4990592;28;20046;-74
2023/08/23 01:46:57;;;;;;;4.65;2.75;;;17.80;68.70;;;;;;5006875;28;20061;-73
2023/08/23 01:49:24;;;;;;;5.03;2.72;;;17.80;68.70;;;;;;4990783;28;20565;-73
2023/08/23 01:51:51;;;;;;;5.88;2.92;;;17.70;68.80;;;;;;4990599;28;20165;-72
2023/08/23 01:54:18;;;;;;;4.97;3.00;;;17.60;68.80;;;;;;5006970;28;20058;-73
2023/08/23 01:56:47;;;;;;;5.57;3.10;;;17.60;68.90;;;;;;5006667;28;20064;-72
2023/08/23 01:59:14;;;;;;;5.05;3.20;;;17.60;69.00;;;;;;5008089;28;20055;-72
2023/08/23 02:01:41;;;;;;;4.47;2.90;;;17.60;69.00;;;;;;4990029;28;20077;-73
2023/08/23 02:04:08;;;;;;;4.15;2.60;;;17.60;69.10;;;;;;4990223;28;20056;-73
2023/08/23 02:06:34;;;;;;;4.57;2.60;;;17.50;69.20;;;;;;4990393;28;20571;-73
2023/08/23 02:09:01;;;;;;;5.77;3.30;;;17.50;69.30;;;;;;5006467;28;20093;-73
2023/08/23 02:11:28;;;;;;;5.20;2.97;;;17.50;69.20;;;;;;4989716;28;20058;-73
2023/08/23 02:13:57;;;;;;;7.32;3.05;;;17.50;69.10;;;;;;4990097;28;20054;-73
2023/08/23 02:16:29;;;;;;;4.60;2.70;;;17.50;68.90;;;;;;4989805;28;20059;-73
2023/08/23 02:18:56;;;;;;;5.65;3.08;;;17.50;68.80;;;;;;4990201;28;20102;-72
2023/08/23 02:21:24;;;;;;;5.73;2.87;;;17.40;68.80;;;;;;5007503;28;20058;-72
2023/08/23 02:23:51;;;;;;;5.68;3.30;;;17.40;68.80;;;;;;5007634;28;20690;-72
2023/08/23 02:26:18;;;;;;;5.35;3.38;;;17.40;68.90;;;;;;4990065;28;20549;-73
2023/08/23 02:28:45;;;;;;;7.38;3.70;;;17.40;68.90;;;;;;4989711;28;20375;-73
2023/08/23 02:31:13;;;;;;;6.20;3.40;;;17.30;69.10;;;;;;5006246;28;20070;-73
2023/08/23 02:33:40;;;;;;;7.80;3.30;;;17.30;69.30;;;;;;4989972;28;20057;-72
2023/08/23 02:36:07;;;;;;;6.20;3.00;;;17.20;69.30;;;;;;5007325;28;20094;-73
2023/08/23 02:38:34;;;;;;;6.60;3.40;;;17.20;69.50;;;;;;5006203;28;20133;-73
2023/08/23 02:41:00;;;;;;;7.13;3.80;;;17.20;69.60;;;;;;5001878;28;20877;-72
2023/08/23 02:43:27;;;;;;;6.45;3.65;;;17.20;69.80;;;;;;5007789;28;20059;-73
2023/08/23 02:45:55;;;;;;;6.07;3.37;;;17.10;69.80;;;;;;4990057;28;20270;-73
2023/08/23 02:48:23;;;;;;;6.63;3.67;;;17.10;69.90;;;;;;5005674;28;20050;-73
2023/08/23 02:50:50;;;;;;;6.60;3.50;;;17.10;70.10;;;;;;5005511;28;20091;-72
2023/08/23 02:53:17;;;;;;;6.22;3.30;;;17.00;70.20;;;;;;4986482;28;20513;-73
2023/08/23 02:55:44;;;;;;;7.25;3.60;;;17.00;70.30;;;;;;4991796;28;20050;-72
2023/08/23 02:58:11;;;;;;;7.73;3.77;;;17.00;70.20;;;;;;4993433;28;20046;-72
2023/08/23 03:00:40;;;;;;;8.20;3.80;;;17.00;70.30;;;;;;4992737;28;20097;-73
2023/08/23 03:03:07;;;;;;;6.75;3.35;;;17.00;70.50;;;;;;5010873;28;20517;-72
2023/08/23 03:05:35;;;;;;;8.18;3.90;;;17.00;70.50;;;;;;4993081;28;20054;-73
2023/08/23 03:08:02;;;;;;;6.28;3.40;;;17.00;70.70;;;;;;4992647;28;20046;-73
2023/08/23 03:10:29;;;;;;;7.67;3.40;;;17.00;70.80;;;;;;5010296;28;20060;-72
2023/08/23 03:12:56;;;;;;;6.55;3.10;;;17.00;70.90;;;;;;4992845;28;20141;-73
2023/08/23 03:15:23;;;;;;;6.80;4.07;;;16.90;70.90;;;;;;5010711;28;20137;-72
2023/08/23 03:17:50;;;;;;;7.50;3.63;;;16.90;70.90;;;;;;5008938;28;20126;-72
2023/08/23 03:20:17;;;;;;;6.72;3.80;;;16.90;71.00;;;;;;4992412;28;20061;-73
2023/08/23 03:22:45;;;;;;;7.07;4.17;;;16.90;71.20;;;;;;4992295;28;20081;-73
2023/08/23 03:25:13;;;;;;;7.35;4.10;;;16.90;71.40;;;;;;5009108;28;20062;-73
2023/08/23 03:27:41;;;;;;;7.70;4.20;;;16.90;71.40;;;;;;5010400;28;20489;-72
2023/08/23 03:30:09;;;;;;;8.35;4.63;;;16.90;71.40;;;;;;5008615;28;20058;-73
2023/08/23 03:32:36;;;;;;;7.00;4.13;;;16.90;71.50;;;;;;5008507;28;20128;-73
2023/08/23 03:35:04;;;;;;;7.90;4.23;;;16.90;71.60;;;;;;4992202;28;20165;-73
2023/08/23 03:37:30;;;;;;;6.90;4.20;;;16.90;71.70;;;;;;5008526;28;20065;-73
2023/08/23 03:39:59;;;;;;;7.55;4.05;;;16.90;71.80;;;;;;4992155;28;20077;-72
2023/08/23 03:42:26;;;;;;;6.88;3.70;;;16.80;72.00;;;;;;5008554;28;20051;-72
2023/08/23 03:44:53;;;;;;;7.57;3.67;;;16.80;72.00;;;;;;5008582;28;20057;-72
2023/08/23 03:47:21;;;;;;;6.03;3.37;;;16.80;72.00;;;;;;5009958;28;20129;-72
2023/08/23 03:49:49;;;;;;;5.95;3.40;;;16.80;71.90;;;;;;5008169;28;20061;-72
2023/08/23 03:52:16;;;;;;;6.10;3.42;;;16.80;71.80;;;;;;4991921;28;20571;-73
2023/08/23 03:54:43;;;;;;;6.10;3.47;;;16.80;71.80;;;;;;5008957;28;20050;-73
2023/08/23 03:57:11;;;;;;;7.15;3.38;;;16.80;71.70;;;;;;5009050;28;20058;-72
2023/08/23 03:59:38;;;;;;;7.13;3.50;;;16.70;71.70;;;;;;5009665;28;20089;-73
2023/08/23 04:02:05;;;;;;;5.28;3.40;;;16.70;71.50;;;;;;4991646;28;20130;-72
2023/08/23 04:04:32;;;;;;;7.00;3.60;;;16.70;71.50;;;;;;4992009;28;20081;-73
2023/08/23 04:06:59;;;;;;;9.30;3.65;;;16.70;71.60;;;;;;5006736;28;20129;-73
2023/08/23 04:09:26;;;;;;;5.55;3.50;;;16.60;71.60;;;;;;4991622;28;20054;-72
2023/08/23 04:11:53;;;;;;;5.27;3.30;;;16.60;71.70;;;;;;5009948;28;20173;-72
2023/08/23 04:14:21;;;;;;;5.95;3.47;;;16.60;71.80;;;;;;5008528;28;20054;-72
2023/08/23 04:16:48;;;;;;;6.95;3.55;;;16.60;72.00;;;;;;5008012;28;20105;-72
2023/08/23 04:19:15;;;;;;;6.50;3.72;;;16.60;71.90;;;;;;4991766;28;20050;-73
2023/08/23 04:21:42;;;;;;;6.25;3.78;;;16.50;71.90;;;;;;5009267;28;20054;-73
2023/08/23 04:24:09;;;;;;;5.27;3.13;;;16.50;72.00;;;;;;5008109;28;20121;-72
2023/08/23 04:26:37;;;;;;;6.30;4.28;;;16.50;72.10;;;;;;4991298;28;20129;-72
2023/08/23 04:29:06;;;;;;;5.82;4.07;;;16.50;72.20;;;;;;5007742;28;20087;-73
2023/08/23 04:31:34;;;;;;;6.25;4.55;;;16.50;72.20;;;;;;4991249;28;20061;-72
2023/08/23 04:34:10;;;;;;;7.13;4.85;;;16.50;72.30;;;;;;4991418;28;20050;-73
2023/08/23 04:36:37;;;;;;;7.40;4.80;;;16.50;72.30;;;;;;4991085;28;20631;-73
2023/08/23 04:39:04;;;;;;;7.65;4.85;;;16.40;72.50;;;;;;4991232;28;20521;-72
2023/08/23 04:41:31;;;;;;;7.38;4.80;;;16.40;72.60;;;;;;4991256;28;20130;-72
2023/08/23 04:43:58;;;;;;;7.32;5.07;;;16.40;72.50;;;;;;5007831;28;20050;-73
2023/08/23 04:46:26;;;;;;;8.68;5.90;;;16.40;72.70;;;;;;4991324;28;20042;-73
2023/08/23 04:48:55;;;;;;;8.50;5.57;;;16.40;72.90;;;;;;4989715;28;20053;-72
2023/08/23 04:51:23;;;;;;;7.45;5.55;;;16.40;73.10;;;;;;4988585;28;20362;-72
2023/08/23 04:53:50;;;;;;;7.53;5.88;;;16.40;73.30;;;;;;5007441;28;20120;-73
2023/08/23 04:56:17;;;;;;;8.10;5.70;;;16.40;73.20;;;;;;5007453;28;20590;-72
2023/08/23 04:58:44;;;;;;;8.07;5.68;;;16.40;73.40;;;;;;5007578;28;20054;-72
2023/08/23 05:01:11;;;;;;;8.07;5.77;;;16.40;73.50;;;;;;5007057;28;20052;-72
2023/08/23 05:03:42;;;;;;;7.60;5.45;;;16.40;73.60;;;;;;5007974;28;20125;-72
2023/08/23 05:06:10;;;;;;;7.60;5.68;;;16.40;74.00;;;;;;4991403;28;20063;-72
2023/08/23 05:08:37;;;;;;;7.65;5.68;;;16.40;73.70;;;;;;4991742;28;20076;-72
2023/08/23 05:11:10;;;;;;;7.57;5.60;;;16.40;73.90;;;;;;4999248;28;20046;-73
2023/08/23 05:13:37;;;;;;;7.87;5.60;;;16.40;73.90;;;;;;5008918;28;20049;-72
2023/08/23 05:16:05;;;;;;;8.50;5.90;;;16.40;74.30;;;;;;4991368;28;20142;-72
2023/08/23 05:18:32;;;;;;;8.90;6.13;;;16.40;74.50;;;;;;4990787;28;20050;-72
2023/08/23 05:21:00;;;;;;;8.82;5.93;;;16.40;74.50;;;;;;4991151;28;20050;-72
2023/08/23 05:23:29;;;;;;;8.85;6.50;;;16.40;74.30;;;;;;5009039;28;20141;-73
2023/08/23 05:25:57;;;;;;;9.63;6.53;;;16.40;74.50;;;;;;4991262;28;20049;-72
2023/08/23 05:28:24;;;;;;;10.63;6.80;;;16.50;74.60;;;;;;5007251;28;20054;-72
2023/08/23 05:30:51;;;;;;;10.27;6.43;;;16.50;74.60;;;;;;5007727;28;20169;-72
2023/08/23 05:33:22;;;;;;;10.10;6.32;;;16.50;74.60;;;;;;4988313;28;20046;-73
2023/08/23 05:35:49;;;;;;;10.60;6.90;;;16.50;74.60;;;;;;4990154;28;20049;-72
2023/08/23 05:38:16;;;;;;;9.37;6.00;;;16.50;74.80;;;;;;4990837;28;20674;-73
2023/08/23 05:40:45;;;;;;;9.13;6.10;;;16.50;75.00;;;;;;4990553;28;20121;-72
2023/08/23 05:43:13;;;;;;;9.48;6.28;;;16.50;75.10;;;;;;4990528;28;20173;-72
2023/08/23 05:45:40;;;;;;;9.73;6.65;;;16.50;75.20;;;;;;5006722;28;20080;-72
2023/08/23 05:48:07;;;;;;;8.40;6.20;;;16.50;75.30;;;;;;4990657;28;20531;-73
2023/08/23 05:50:34;;;;;;;9.30;6.50;;;16.50;75.40;;;;;;4990068;28;20043;-72
2023/08/23 05:53:04;;;;;;;9.48;5.97;;;16.50;75.20;;;;;;5007012;28;20065;-73
2023/08/23 05:55:31;;;;;;;11.15;7.05;;;16.50;75.20;;;;;;4990765;28;20046;-72
2023/08/23 05:57:59;;;;;;;11.20;7.55;;;16.50;75.60;;;;;;5008293;28;20497;-73
2023/08/23 06:00:26;;;;;;;9.82;6.90;;;16.50;75.90;;;;;;5007738;28;20066;-72
2023/08/23 06:02:53;;;;;;;10.60;7.20;;;16.50;76.20;;;;;;5006359;28;20546;-73
2023/08/23 06:05:20;;;;;;;10.10;7.53;;;16.50;76.40;;;;;;5006125;28;20476;-73
2023/08/23 06:07:47;;;;;;;10.57;7.18;;;16.50;76.60;;;;;;5007365;28;20051;-72
2023/08/23 06:10:14;;;;;;;11.15;7.10;;;16.50;76.70;;;;;;5004980;28;20065;-72
2023/08/23 06:12:41;;;;;;;17.25;8.23;;;16.50;77.10;;;;;;5006209;28;20153;-73
2023/08/23 06:15:10;;;;;;;17.67;7.67;;;16.50;77.20;;;;;;5007460;28;20141;-73
2023/08/23 06:17:37;;;;;;;15.82;8.25;;;16.50;77.40;;;;;;4995783;28;20146;-72
2023/08/23 06:20:04;;;;;;;18.20;8.27;;;16.50;77.50;;;;;;4997435;28;20681;-72
2023/08/23 06:22:31;;;;;;;16.45;8.90;;;16.50;77.70;;;;;;4980876;28;20101;-73
2023/08/23 06:24:58;;;;;;;14.75;9.02;;;16.50;77.90;;;;;;4987028;28;20047;-72
2023/08/23 06:27:25;;;;;;;14.67;8.77;;;16.50;78.30;;;;;;4999578;28;20535;-72
2023/08/23 06:29:52;;;;;;;15.45;9.55;;;16.50;78.60;;;;;;5004156;28;20062;-73
2023/08/23 06:32:21;;;;;;;14.30;9.20;;;16.50;79.00;;;;;;5004333;28;21019;-72
2023/08/23 06:34:47;;;;;;;14.02;9.43;;;16.60;79.40;;;;;;5008971;28;20046;-73
2023/08/23 06:37:14;;;;;;;16.05;10.35;;;16.60;79.70;;;;;;5006931;28;20915;-73
2023/08/23 06:39:41;;;;;;;14.50;9.43;;;16.70;80.00;;;;;;5004217;28;20049;-73
2023/08/23 06:42:09;;;;;;;15.40;9.82;;;16.70;80.40;;;;;;5006357;28;20588;-73
2023/08/23 06:44:36;;;;;;;17.02;9.40;;;16.80;80.50;;;;;;5008054;28;20404;-73
2023/08/23 06:47:03;;;;;;;14.73;9.48;;;16.80;80.90;;;;;;5007185;28;20055;-72
2023/08/23 06:49:31;;;;;;;14.13;8.73;;;16.90;81.00;;;;;;5007896;28;20474;-73
2023/08/23 06:51:58;;;;;;;13.10;8.23;;;16.90;81.60;;;;;;5008552;28;20056;-73
2023/08/23 06:54:25;;;;;;;15.32;8.93;;;17.00;81.60;;;;;;5006576;28;20046;-73
2023/08/23 06:56:52;;;;;;;14.82;9.23;;;17.00;81.70;;;;;;5007427;28;20077;-73
2023/08/23 06:59:19;;;;;;;13.88;9.25;;;17.00;81.70;;;;;;5007455;28;20049;-73
2023/08/23 07:01:47;;;;;;;14.82;8.80;;;17.00;81.70;;;;;;5007192;28;20545;-73
2023/08/23 07:04:13;;;;;;;13.50;9.07;;;17.10;81.90;;;;;;5007694;28;20047;-73
2023/08/23 07:06:42;;;;;;;14.52;9.30;;;17.20;82.30;;;;;;5007565;28;20982;-73
2023/08/23 07:09:10;;;;;;;13.18;8.80;;;17.20;82.20;;;;;;4999847;28;20050;-73
2023/08/23 07:11:38;;;;;;;14.13;8.57;;;17.30;82.20;;;;;;5009206;28;20133;-73
2023/08/23 07:14:06;;;;;;;12.50;8.75;;;17.40;82.30;;;;;;5007086;28;20909;-73
2023/08/23 07:16:33;;;;;;;14.30;8.40;;;17.40;83.00;;;;;;5009055;28;20054;-73
2023/08/23 07:19:01;;;;;;;13.38;8.07;;;17.50;83.50;;;;;;5008121;28;20133;-73
2023/08/23 07:21:29;;;;;;;12.02;7.60;;;17.50;83.80;;;;;;5006639;28;20057;-73
2023/08/23 07:23:57;;;;;;;12.23;7.55;;;17.60;83.30;;;;;;5004980;28;20807;-73
2023/08/23 07:26:24;;;;;;;11.77;7.43;;;17.70;83.20;;;;;;5002880;28;20077;-73
2023/08/23 07:28:51;;;;;;;12.37;7.70;;;17.70;82.90;;;;;;5004084;28;20128;-73
2023/08/23 07:31:18;;;;;;;11.15;7.20;;;17.80;82.90;;;;;;5004383;28;20050;-73
2023/08/23 07:33:45;;;;;;;11.18;6.88;;;17.80;82.70;;;;;;5006375;28;20592;-73
2023/08/23 07:36:12;;;;;;;10.02;6.65;;;17.80;82.60;;;;;;5004236;28;20197;-73
2023/08/23 07:38:39;;;;;;;11.38;6.45;;;17.90;82.70;;;;;;4985742;28;20602;-74
2023/08/23 07:41:07;;;;;;;11.33;6.93;;;18.00;82.50;;;;;;5007238;28;20046;-74
2023/08/23 07:43:34;;;;;;;9.65;6.25;;;18.00;82.60;;;;;;5007872;28;20046;-74
2023/08/23 07:46:03;;;;;;;10.40;5.90;;;18.00;82.70;;;;;;5007972;28;20050;-73
2023/08/23 07:48:30;;;;;;;8.43;5.38;;;18.10;82.50;;;;;;5009048;28;20050;-73
2023/08/23 07:51:00;;;;;;;8.43;5.25;;;18.10;82.30;;;;;;5006362;28;20832;-73
2023/08/23 07:53:27;;;;;;;8.23;4.70;;;18.20;82.30;;;;;;5008131;28;20074;-73
2023/08/23 07:55:54;;;;;;;10.05;5.45;;;18.30;82.00;;;;;;5008962;28;20058;-73
2023/08/23 07:58:23;;;;;;;8.93;4.95;;;18.30;81.70;;;;;;5008775;28;20054;-74
2023/08/23 08:00:51;;;;;;;9.05;4.60;;;18.40;81.50;;;;;;5005383;28;20503;-74
2023/08/23 08:03:18;;;;;;;8.57;5.07;;;18.40;81.20;;;;;;5004292;28;20485;-73
2023/08/23 08:05:45;;;;;;;7.70;4.37;;;18.50;80.70;;;;;;5006871;28;20047;-73
2023/08/23 08:08:12;;;;;;;6.22;3.85;;;18.60;80.40;;;;;;4986782;28;20050;-73
2023/08/23 08:10:39;;;;;;;7.10;4.20;;;18.60;80.20;;;;;;5007169;28;20564;-74
2023/08/23 08:13:06;;;;;;;6.93;4.30;;;18.70;80.00;;;;;;5005793;28;20054;-74
2023/08/23 08:15:35;;;;;;;7.28;3.90;;;18.70;80.00;;;;;;5008874;28;21025;-73
2023/08/23 08:18:02;;;;;;;8.27;3.43;;;18.80;79.80;;;;;;5004438;28;20125;-74
2023/08/23 08:20:29;;;;;;;7.32;4.30;;;18.90;79.60;;;;;;5006286;28;20157;-74
2023/08/23 08:22:56;;;;;;;10.00;4.80;;;18.90;79.10;;;;;;5001951;28;20061;-74
2023/08/23 08:25:23;;;;;;;7.72;4.05;;;19.00;79.10;;;;;;5002395;28;20051;-74
2023/08/23 08:27:51;;;;;;;7.40;4.05;;;19.10;79.00;;;;;;5005944;28;20054;-74
2023/08/23 08:30:18;;;;;;;7.07;4.10;;;19.10;78.10;;;;;;5008734;28;20047;-74
2023/08/23 08:32:47;;;;;;;10.35;4.00;;;19.20;77.70;;;;;;5005809;28;20085;-75
2023/08/23 08:35:14;;;;;;;6.30;3.65;;;19.20;77.20;;;;;;5000491;28;20553;-74
2023/08/23 08:37:41;;;;;;;6.47;3.55;;;19.30;77.00;;;;;;4999524;28;20050;-75
2023/08/23 08:40:09;;;;;;;7.25;3.92;;;19.40;77.00;;;;;;4999955;28;20076;-73
2023/08/23 08:42:37;;;;;;;9.00;4.07;;;19.40;77.00;;;;;;4998439;28;20070;-73
2023/08/23 08:45:05;;;;;;;7.22;4.40;;;19.40;77.00;;;;;;5002030;28;20108;-74
2023/08/23 08:47:32;;;;;;;7.95;3.83;;;19.50;76.90;;;;;;5005538;28;20054;-75
2023/08/23 08:50:00;;;;;;;9.05;4.05;;;19.50;76.90;;;;;;5005384;28;20138;-74
2023/08/23 08:52:30;;;;;;;7.45;3.92;;;19.70;76.60;;;;;;4999431;28;20069;-74
2023/08/23 08:54:59;;;;;;;8.33;3.90;;;19.70;76.60;;;;;;4998554;28;20663;-74
2023/08/23 08:57:28;;;;;;;6.18;3.72;;;19.70;76.50;;;;;;4999063;28;20144;-74
2023/08/23 08:59:56;;;;;;;6.60;3.33;;;19.90;76.40;;;;;;5004767;28;20507;-75
2023/08/23 09:02:27;;;;;;;8.80;4.13;;;19.90;76.60;;;;;;5003119;28;20054;-75
2023/08/23 09:04:55;;;;;;;7.22;3.65;;;20.00;76.40;;;;;;5007083;28;20066;-74
2023/08/23 09:07:23;;;;;;;5.90;2.30;;;20.00;76.30;;;;;;5006193;28;20125;-73
2023/08/23 09:09:51;;;;;;;6.28;2.72;;;20.10;76.20;;;;;;5005825;28;20050;-73
2023/08/23 09:12:18;;;;;;;7.00;3.00;;;20.30;75.40;;;;;;5003112;28;20046;-73
2023/08/23 09:14:49;;;;;;;5.78;2.50;;;20.30;74.80;;;;;;5000925;28;20054;-72
2023/08/23 09:17:16;;;;;;;6.78;3.30;;;20.40;75.10;;;;;;5006842;28;20124;-73
2023/08/23 09:19:43;;;;;;;6.80;3.63;;;20.50;75.30;;;;;;5001862;28;20057;-73
2023/08/23 09:22:10;;;;;;;8.13;3.03;;;20.50;74.70;;;;;;5003365;28;20570;-72
2023/08/23 09:24:38;;;;;;;6.75;3.45;;;20.60;74.20;;;;;;5004451;28;20089;-73
2023/08/23 09:27:05;;;;;;;6.35;3.35;;;20.70;73.70;;;;;;4982072;28;20062;-73
2023/08/23 09:29:32;;;;;;;8.30;3.40;;;20.70;73.00;;;;;;4986803;28;20053;-73
2023/08/23 09:32:00;;;;;;;7.47;3.30;;;20.80;72.80;;;;;;4988431;28;20142;-73
2023/08/23 09:34:27;;;;;;;10.73;4.20;;;20.90;72.50;;;;;;4962537;28;1075804;-73
2023/08/23 09:36:54;;;;;;;7.80;4.47;;;20.90;72.30;;;;;;5008111;28;20137;-73
2023/08/23 09:39:22;;;;;;;10.00;5.18;;;21.00;72.70;;;;;;5005474;28;20070;-73
2023/08/23 09:41:51;;;;;;;11.07;4.47;;;21.10;72.80;;;;;;5003254;28;20061;-74
2023/08/23 09:44:20;;;;;;;9.30;5.38;;;21.10;72.20;;;;;;5001333;28;20046;-73
2023/08/23 09:46:48;;;;;;;8.60;4.83;;;21.30;71.40;;;;;;5004220;28;20081;-73
2023/08/23 09:49:17;;;;;;;8.00;4.38;;;21.30;71.20;;;;;;4987598;28;20054;-73
2023/08/23 09:51:45;;;;;;;7.38;4.25;;;21.40;71.20;;;;;;5003911;28;20058;-73
2023/08/23 09:54:16;;;;;;;7.38;4.40;;;21.40;71.10;;;;;;5004031;28;20065;-73
2023/08/23 09:56:44;;;;;;;8.45;4.40;;;21.50;70.40;;;;;;5004266;28;20050;-73
2023/08/23 09:59:13;;;;;;;8.73;4.50;;;21.50;70.30;;;;;;5003766;28;20089;-72
2023/08/23 10:01:40;;;;;;;8.48;4.28;;;21.60;70.20;;;;;;5005277;28;20521;-72
2023/08/23 10:04:08;;;;;;;8.07;3.95;;;21.70;69.80;;;;;;5002316;28;20138;-72
2023/08/23 10:06:36;;;;;;;6.60;4.13;;;21.70;69.30;;;;;;5006904;28;20054;-73
2023/08/23 10:09:04;;;;;;;7.22;4.18;;;21.90;68.70;;;;;;4995330;28;20158;-74
2023/08/23 10:11:32;;;;;;;6.90;4.00;;;21.90;68.50;;;;;;5005562;28;20052;-75
2023/08/23 10:14:01;;;;;;;8.48;4.00;;;21.90;68.30;;;;;;4988843;28;20509;-73
2023/08/23 10:19:25;;;;;;;7.60;3.90;;;22.00;68.10;;;;;;4966921;26;20059;-73
2023/08/23 10:21:52;;;;;;;7.05;3.90;;;22.10;67.30;;;;;;4968767;28;20147;-71
2023/08/23 10:24:38;;;;;;;5.57;2.50;;;22.10;68.00;;;;;;4951032;28;20102;-71
2023/08/23 10:27:07;;;;;;;8.25;3.80;;;22.20;68.30;;;;;;4966354;28;20051;-72
2023/08/23 10:29:39;;;;;;;8.93;3.60;;;22.20;68.00;;;;;;4968767;28;20059;-72
2023/08/23 10:32:08;;;;;;;6.95;3.13;;;22.30;67.90;;;;;;4965680;28;20111;-72
2023/08/23 10:34:38;;;;;;;8.23;3.90;;;22.30;67.20;;;;;;4981073;28;20051;-71
2023/08/23 10:37:15;;;;;;;8.37;4.60;;;22.40;67.60;;;;;;4966076;28;20489;-72
2023/08/23 10:39:49;;;;;;;8.02;4.60;;;22.50;67.20;;;;;;4966295;28;20095;-72
2023/08/23 10:42:17;;;;;;;9.80;4.65;;;22.50;66.70;;;;;;4966578;28;20055;-72
2023/08/23 10:44:46;;;;;;;10.82;4.43;;;22.50;67.00;;;;;;4966719;28;20130;-72
2023/08/23 10:47:16;;;;;;;8.00;4.70;;;22.60;67.30;;;;;;4980227;28;20075;-71
2023/08/23 10:49:47;;;;;;;10.10;4.60;;;22.60;68.00;;;;;;4967432;28;20783;-72
2023/08/23 10:52:14;;;;;;;8.40;4.63;;;22.70;67.70;;;;;;4969165;28;20062;-71
2023/08/23 10:54:41;;;;;;;9.45;4.65;;;22.80;67.10;;;;;;4956255;28;20051;-71
2023/08/23 10:57:09;;;;;;;8.23;4.25;;;22.80;66.40;;;;;;4964433;28;20059;-70
2023/08/23 10:59:36;;;;;;;6.82;4.10;;;22.80;66.50;;;;;;4959005;28;20055;-71
2023/08/23 11:02:03;;;;;;;9.20;3.57;;;22.90;66.10;;;;;;4967611;28;20055;-72
2023/08/23 11:04:32;;;;;;;7.82;3.53;;;22.90;66.10;;;;;;4966239;28;20047;-71
2023/08/23 11:07:00;;;;;;;9.82;4.68;;;22.90;64.80;;;;;;4966588;28;20616;-71
2023/08/23 11:09:27;;;;;;;7.88;4.55;;;22.90;64.70;;;;;;4968650;28;20062;-71
2023/08/23 11:11:54;;;;;;;7.93;4.55;;;22.90;65.40;;;;;;4969166;28;20078;-71
2023/08/23 11:14:21;;;;;;;10.77;4.90;;;22.90;66.10;;;;;;4968286;28;20055;-71
2023/08/23 11:16:49;;;;;;;7.75;5.10;;;22.90;66.30;;;;;;4969823;28;20146;-71
2023/08/23 11:19:17;;;;;;;10.82;5.50;;;22.90;65.80;;;;;;4970517;28;20058;-71
2023/08/23 11:21:44;;;;;;;8.60;4.55;;;22.90;66.10;;;;;;4972877;28;20051;-71
2023/08/23 11:24:13;;;;;;;9.55;4.65;;;22.90;66.60;;;;;;4972435;28;20587;-71
2023/08/23 11:26:40;;;;;;;11.70;4.97;;;23.00;66.90;;;;;;4951661;28;20052;-71
2023/08/23 11:29:07;;;;;;;9.70;5.32;;;23.00;66.60;;;;;;4965732;28;20047;-70
2023/08/23 11:31:35;;;;;;;7.85;5.00;;;23.00;66.40;;;;;;4970115;28;20052;-71
2023/08/23 11:34:07;;;;;;;8.40;5.40;;;23.10;66.40;;;;;;4974910;28;20284;-71
2023/08/23 11:36:37;;;;;;;8.27;5.07;;;23.10;66.60;;;;;;4968604;28;20051;-71
2023/08/23 11:39:05;;;;;;;10.00;4.73;;;23.20;66.50;;;;;;4968867;28;20047;-71
2023/08/23 11:41:35;;;;;;;9.18;3.58;;;23.30;66.20;;;;;;4960979;28;20115;-71
2023/08/23 11:44:06;;;;;;;8.32;4.40;;;23.30;64.30;;;;;;4962564;28;20143;-71
2023/08/23 11:46:34;;;;;;;8.52;4.40;;;23.30;64.60;;;;;;4949837;28;20062;-71
2023/08/23 11:49:03;;;;;;;7.60;4.15;;;23.40;64.70;;;;;;4968164;28;20122;-71
2023/08/23 11:51:39;;;;;;;10.30;5.17;;;23.40;64.10;;;;;;4970293;28;20056;-71
2023/08/23 11:54:07;;;;;;;9.32;5.22;;;23.40;64.30;;;;;;4965380;28;20608;-71
2023/08/23 11:56:36;;;;;;;7.90;4.10;;;23.50;64.60;;;;;;4979074;28;20051;-71
2023/08/23 11:59:03;;;;;;;7.90;3.63;;;23.50;64.20;;;;;;4968483;28;20247;-71
2023/08/23 12:01:30;;;;;;;7.57;3.17;;;23.50;63.70;;;;;;4966368;28;20052;-71
2023/08/23 12:03:57;;;;;;;6.50;2.57;;;23.60;63.20;;;;;;4977737;28;20912;-71
2023/08/23 12:06:24;;;;;;;6.57;2.63;;;23.60;62.20;;;;;;4950264;28;20138;-71
2023/08/23 12:08:52;;;;;;;6.05;2.10;;;23.60;62.10;;;;;;4969024;28;20055;-71
2023/08/23 12:11:19;;;;;;;6.45;2.58;;;23.70;62.00;;;;;;4968923;28;20613;-71
2023/08/23 12:13:48;;;;;;;5.55;2.25;;;23.80;61.10;;;;;;4984293;28;20056;-72
2023/08/23 12:16:15;;;;;;;7.33;3.13;;;23.80;59.90;;;;;;4982673;28;20062;-71
2023/08/23 12:18:44;;;;;;;8.27;3.22;;;23.80;59.90;;;;;;4966033;28;20051;-71
2023/08/23 12:21:11;;;;;;;7.78;4.20;;;23.80;60.40;;;;;;4968320;28;20160;-72
2023/08/23 12:23:38;;;;;;;9.55;4.03;;;23.60;61.10;;;;;;4967235;28;20051;-71
2023/08/23 12:26:06;;;;;;;9.00;4.25;;;23.60;61.30;;;;;;4968601;28;20128;-71
2023/08/23 12:28:35;;;;;;;8.77;5.07;;;23.60;61.80;;;;;;4968150;28;20059;-71
2023/08/23 12:31:04;;;;;;;8.20;4.20;;;23.60;62.10;;;;;;4968559;28;20056;-71
2023/08/23 12:33:30;;;;;;;8.30;3.60;;;23.60;62.10;;;;;;4970238;28;21029;-71
2023/08/23 12:35:58;;;;;;;6.95;3.90;;;23.60;62.20;;;;;;4985994;28;20087;-71
2023/08/23 12:38:27;;;;;;;9.00;4.10;;;23.50;61.50;;;;;;4965702;28;20666;-71
2023/08/23 12:40:54;;;;;;;7.07;4.30;;;23.50;61.40;;;;;;4969065;28;20055;-71
2023/08/23 12:43:22;;;;;;;6.70;4.00;;;23.40;61.20;;;;;;4968520;28;20142;-71
2023/08/23 12:45:50;;;;;;;7.80;3.85;;;23.40;62.50;;;;;;4969380;28;20142;-71
2023/08/23 12:48:18;;;;;;;8.85;3.38;;;23.40;63.00;;;;;;4967988;28;20057;-71
2023/08/23 12:50:45;;;;;;;6.85;3.75;;;23.40;62.70;;;;;;4966064;28;20536;-71